PWSweather.com
Personal Weather Stations
Station Observations
AF1HS
North Haven, CT 06473

North Haven, CT 06473

Lat: 41.3733, Lon: -72.8413

Elevation: 85.3

Station Type: Oregon Scientific WMR968

http://www.af1hs.com/wx/index.php

High Low Average
Temperature 57.0°F13.9°C 30.4°F-0.9°C 44.1°F6.7°C
Dew Point 49.3°F9.6°C 15.1°F-9.4°C 32.8°F0.4°C
Winds Calm Calm Calm Calm Calm WSWCalm WSW
Wind Gusts -- -- --
Humidity 100% 44% 67%
Pressure 30.89 in1046.1 mb 30.30 in1026.1 mb -
Precipitation 0.00 in0.0 mm - -
Hour Temp Dew Point Humidity Winds Wind Gusts Pressure Precip Precip Rate Daily Precip Total
12:00 AM 39.7°F4.3°C 36.2°F2.3°C 87% Calm Calm -- 30.59 in1035.9 mb - 0.00 in0.0 mm 0.00 in0.0 mm
12:10 AM 40.0°F4.4°C 36.7°F2.6°C 88% Calm Calm -- 30.59 in1035.9 mb - 0.00 in0.0 mm 0.00 in0.0 mm
12:20 AM 40.3°F4.6°C 37.3°F2.9°C 89% Calm Calm -- 30.53 in1033.9 mb - 0.00 in0.0 mm 0.00 in0.0 mm
12:30 AM 40.6°F4.8°C 37.7°F3.2°C 89% Calm Calm -- 30.53 in1033.9 mb - 0.00 in0.0 mm 0.00 in0.0 mm
12:40 AM 40.8°F4.9°C 37.8°F3.2°C 89% Calm Calm -- 30.53 in1033.9 mb - 0.00 in0.0 mm 0.00 in0.0 mm
12:50 AM 41.0°F5.0°C 38.3°F3.5°C 90% Calm Calm -- 30.53 in1033.9 mb - 0.00 in0.0 mm 0.00 in0.0 mm
01:00 AM 41.2°F5.1°C 38.5°F3.6°C 90% Calm Calm -- 30.53 in1033.9 mb - 0.00 in0.0 mm 0.00 in0.0 mm
01:10 AM 41.5°F5.3°C 38.8°F3.8°C 90% Calm Calm -- 30.50 in1032.8 mb - 0.00 in0.0 mm 0.00 in0.0 mm
01:20 AM 41.9°F5.5°C 39.5°F4.2°C 91% Calm Calm -- 30.50 in1032.8 mb - 0.00 in0.0 mm 0.00 in0.0 mm
01:30 AM 42.1°F5.6°C 39.6°F4.2°C 91% Calm Calm -- 30.50 in1032.8 mb - 0.00 in0.0 mm 0.00 in0.0 mm
01:40 AM 42.3°F5.7°C 40.1°F4.5°C 92% Calm Calm -- 30.48 in1032.2 mb - 0.00 in0.0 mm 0.00 in0.0 mm
01:50 AM 42.4°F5.8°C 40.3°F4.6°C 92% Calm Calm -- 30.45 in1031.2 mb - 0.00 in0.0 mm 0.00 in0.0 mm
02:00 AM 42.8°F6.0°C 40.9°F4.9°C 93% Calm Calm -- 30.45 in1031.2 mb - 0.00 in0.0 mm 0.00 in0.0 mm
02:10 AM 43.2°F6.2°C 41.3°F5.2°C 93% Calm Calm -- 30.42 in1030.1 mb - 0.00 in0.0 mm 0.00 in0.0 mm
02:20 AM 43.3°F6.3°C 41.7°F5.4°C 94% Calm Calm -- 30.39 in1029.1 mb - 0.00 in0.0 mm 0.00 in0.0 mm
02:30 AM 43.8°F6.6°C 42.2°F5.7°C 94% Calm Calm -- 30.39 in1029.1 mb - 0.00 in0.0 mm 0.00 in0.0 mm
02:40 AM 44.1°F6.7°C 42.4°F5.8°C 94% Calm Calm -- 30.39 in1029.1 mb - 0.00 in0.0 mm 0.00 in0.0 mm
02:50 AM 44.3°F6.8°C 42.9°F6.1°C 95% Calm Calm -- 30.36 in1028.1 mb - 0.00 in0.0 mm 0.00 in0.0 mm
03:00 AM 44.5°F6.9°C 43.2°F6.2°C 95% Calm Calm -- 30.36 in1028.1 mb - 0.00 in0.0 mm 0.00 in0.0 mm
03:10 AM 44.6°F7.0°C 43.3°F6.3°C 95% Calm Calm -- 30.33 in1027.1 mb - 0.00 in0.0 mm 0.00 in0.0 mm
03:20 AM 44.4°F6.9°C 42.8°F6.0°C 94% Calm Calm -- 30.36 in1028.1 mb - 0.00 in0.0 mm 0.00 in0.0 mm
03:30 AM 44.1°F6.7°C 42.5°F5.8°C 94% Calm Calm -- 30.36 in1028.1 mb - 0.00 in0.0 mm 0.00 in0.0 mm
03:40 AM 44.1°F6.7°C 42.4°F5.8°C 94% Calm Calm -- 30.36 in1028.1 mb - 0.00 in0.0 mm 0.00 in0.0 mm
03:50 AM 44.1°F6.7°C 42.4°F5.8°C 94% Calm Calm -- 30.36 in1028.1 mb - 0.00 in0.0 mm 0.00 in0.0 mm
04:00 AM 43.9°F6.6°C 42.3°F5.7°C 94% Calm Calm -- 30.36 in1028.1 mb - 0.00 in0.0 mm 0.00 in0.0 mm
04:10 AM 43.9°F6.6°C 42.3°F5.7°C 94% Calm Calm -- 30.36 in1028.1 mb - 0.00 in0.0 mm 0.00 in0.0 mm
04:20 AM 43.9°F6.6°C 42.0°F5.6°C 93% Calm Calm -- 30.33 in1027.1 mb - 0.00 in0.0 mm 0.00 in0.0 mm
04:30 AM 43.9°F6.6°C 42.3°F5.7°C 94% Calm Calm -- 30.33 in1027.1 mb - 0.00 in0.0 mm 0.00 in0.0 mm
04:40 AM 44.2°F6.8°C 42.9°F6.1°C 95% Calm Calm -- 30.33 in1027.1 mb - 0.00 in0.0 mm 0.00 in0.0 mm
04:50 AM 45.1°F7.3°C 44.8°F7.1°C 99% Calm Calm -- 30.33 in1027.1 mb - 0.00 in0.0 mm 0.00 in0.0 mm
05:00 AM 45.9°F7.7°C 45.9°F7.7°C 100% Calm Calm -- 30.33 in1027.1 mb - 0.00 in0.0 mm 0.00 in0.0 mm
05:10 AM 46.7°F8.2°C 46.7°F8.2°C 100% Calm Calm -- 30.33 in1027.1 mb - 0.00 in0.0 mm 0.00 in0.0 mm
05:20 AM 47.1°F8.4°C 47.1°F8.4°C 100% Calm Calm -- 30.33 in1027.1 mb - 0.00 in0.0 mm 0.00 in0.0 mm
05:30 AM 47.7°F8.7°C 47.7°F8.7°C 100% Calm Calm -- 30.33 in1027.1 mb - 0.00 in0.0 mm 0.00 in0.0 mm
05:40 AM 47.9°F8.8°C 47.9°F8.8°C 100% Calm Calm -- 30.30 in1026.1 mb - 0.00 in0.0 mm 0.00 in0.0 mm
05:50 AM 48.0°F8.9°C 48.0°F8.9°C 100% Calm Calm -- 30.30 in1026.1 mb - 0.00 in0.0 mm 0.00 in0.0 mm
06:00 AM 48.2°F9.0°C 48.2°F9.0°C 100% Calm Calm -- 30.30 in1026.1 mb - 0.00 in0.0 mm 0.00 in0.0 mm
06:10 AM 48.4°F9.1°C 48.4°F9.1°C 100% Calm Calm -- 30.33 in1027.1 mb - 0.00 in0.0 mm 0.00 in0.0 mm
06:20 AM 48.6°F9.2°C 48.6°F9.2°C 100% Calm Calm -- 30.33 in1027.1 mb - 0.00 in0.0 mm 0.00 in0.0 mm
06:30 AM 48.7°F9.3°C 48.7°F9.3°C 100% Calm Calm -- 30.33 in1027.1 mb - 0.00 in0.0 mm 0.00 in0.0 mm
06:40 AM 48.9°F9.4°C 48.9°F9.4°C 100% Calm Calm -- 30.33 in1027.1 mb - 0.00 in0.0 mm 0.00 in0.0 mm
06:50 AM 48.7°F9.3°C 48.7°F9.3°C 100% Calm Calm -- 30.33 in1027.1 mb - 0.00 in0.0 mm 0.00 in0.0 mm
07:00 AM 48.9°F9.4°C 48.9°F9.4°C 100% Calm Calm -- 30.33 in1027.1 mb - 0.00 in0.0 mm 0.00 in0.0 mm
07:10 AM 49.1°F9.5°C 49.1°F9.5°C 100% Calm Calm -- 30.33 in1027.1 mb - 0.00 in0.0 mm 0.00 in0.0 mm
07:20 AM 49.1°F9.5°C 49.1°F9.5°C 100% Calm Calm -- 30.33 in1027.1 mb - 0.00 in0.0 mm 0.00 in0.0 mm
07:30 AM 48.7°F9.3°C 48.7°F9.3°C 100% Calm Calm -- 30.33 in1027.1 mb - 0.00 in0.0 mm 0.00 in0.0 mm
07:40 AM 48.9°F9.4°C 48.9°F9.4°C 100% Calm Calm -- 30.33 in1027.1 mb - 0.00 in0.0 mm 0.00 in0.0 mm
07:50 AM 49.3°F9.6°C 49.3°F9.6°C 100% Calm Calm -- 30.33 in1027.1 mb - 0.00 in0.0 mm 0.00 in0.0 mm
08:00 AM 49.8°F9.9°C 48.7°F9.3°C 96% Calm Calm -- 30.33 in1027.1 mb - 0.00 in0.0 mm 0.00 in0.0 mm
08:10 AM 50.2°F10.1°C 47.9°F8.8°C 92% Calm Calm -- 30.33 in1027.1 mb - 0.00 in0.0 mm 0.00 in0.0 mm
08:20 AM 50.6°F10.3°C 41.5°F5.3°C 71% Calm Calm -- 30.36 in1028.1 mb - 0.00 in0.0 mm 0.00 in0.0 mm
08:30 AM 51.2°F10.7°C 40.6°F4.8°C 67% Calm Calm -- 30.36 in1028.1 mb - 0.00 in0.0 mm 0.00 in0.0 mm
08:40 AM 51.6°F10.9°C 40.2°F4.6°C 65% Calm Calm -- 30.33 in1027.1 mb - 0.00 in0.0 mm 0.00 in0.0 mm
08:50 AM 51.8°F11.0°C 40.0°F4.4°C 64% Calm Calm -- 30.36 in1028.1 mb - 0.00 in0.0 mm 0.00 in0.0 mm
09:00 AM 51.8°F11.0°C 40.0°F4.4°C 64% Calm Calm -- 30.36 in1028.1 mb - 0.00 in0.0 mm 0.00 in0.0 mm
09:10 AM 51.8°F11.0°C 40.0°F4.4°C 64% Calm Calm -- 30.36 in1028.1 mb - 0.00 in0.0 mm 0.00 in0.0 mm
09:20 AM 52.0°F11.1°C 40.2°F4.6°C 64% Calm Calm -- 30.36 in1028.1 mb - 0.00 in0.0 mm 0.00 in0.0 mm
09:30 AM 52.2°F11.2°C 39.9°F4.4°C 63% Calm Calm -- 30.36 in1028.1 mb - 0.00 in0.0 mm 0.00 in0.0 mm
09:40 AM 52.4°F11.3°C 39.8°F4.3°C 62% Calm Calm -- 30.36 in1028.1 mb - 0.00 in0.0 mm 0.00 in0.0 mm
09:50 AM 53.3°F11.8°C 38.4°F3.6°C 57% Calm Calm -- 30.36 in1028.1 mb - 0.00 in0.0 mm 0.00 in0.0 mm
10:00 AM 53.6°F12.0°C 38.7°F3.7°C 57% Calm Calm -- 30.36 in1028.1 mb - 0.00 in0.0 mm 0.00 in0.0 mm
10:10 AM 53.8°F12.1°C 38.9°F3.8°C 57% Calm Calm -- 30.39 in1029.1 mb - 0.00 in0.0 mm 0.00 in0.0 mm
10:20 AM 54.0°F12.2°C 38.6°F3.7°C 56% Calm Calm -- 30.42 in1030.1 mb - 0.00 in0.0 mm 0.00 in0.0 mm
10:30 AM 54.0°F12.2°C 37.7°F3.2°C 54% Calm Calm -- 30.42 in1030.1 mb - 0.00 in0.0 mm 0.00 in0.0 mm
10:40 AM 53.7°F12.1°C 37.4°F3.0°C 54% Calm Calm -- 30.42 in1030.1 mb - 0.00 in0.0 mm 0.00 in0.0 mm
10:50 AM 53.4°F11.9°C 37.2°F2.9°C 54% Calm Calm -- 30.42 in1030.1 mb - 0.00 in0.0 mm 0.00 in0.0 mm
11:00 AM 53.5°F11.9°C 37.2°F2.9°C 54% Calm Calm -- 30.42 in1030.1 mb - 0.00 in0.0 mm 0.00 in0.0 mm
11:10 AM 53.4°F11.9°C 37.2°F2.9°C 54% Calm Calm -- 30.45 in1031.2 mb - 0.00 in0.0 mm 0.00 in0.0 mm
11:20 AM 53.8°F12.1°C 37.0°F2.8°C 53% Calm Calm -- 30.45 in1031.2 mb - 0.00 in0.0 mm 0.00 in0.0 mm
11:30 AM 54.6°F12.6°C 36.3°F2.4°C 50% Calm Calm -- 30.45 in1031.2 mb - 0.00 in0.0 mm 0.00 in0.0 mm
11:40 AM 55.6°F13.1°C 36.2°F2.3°C 48% Calm Calm -- 30.45 in1031.2 mb - 0.00 in0.0 mm 0.00 in0.0 mm
11:50 AM 54.8°F12.7°C 34.9°F1.6°C 47% Calm Calm -- 30.48 in1032.2 mb - 0.00 in0.0 mm 0.00 in0.0 mm
12:00 PM 53.1°F11.7°C 33.4°F0.8°C 47% Calm Calm -- 30.48 in1032.2 mb - 0.00 in0.0 mm 0.00 in0.0 mm
12:10 PM 54.8°F12.7°C 34.9°F1.6°C 47% Calm Calm -- 30.48 in1032.2 mb - 0.00 in0.0 mm 0.00 in0.0 mm
12:20 PM 57.0°F13.9°C 35.3°F1.8°C 44% Calm Calm -- 30.48 in1032.2 mb - 0.00 in0.0 mm 0.00 in0.0 mm
12:30 PM 56.1°F13.4°C 34.4°F1.3°C 44% Calm Calm -- 30.48 in1032.2 mb - 0.00 in0.0 mm 0.00 in0.0 mm
12:40 PM 55.0°F12.8°C 34.0°F1.1°C 45% Calm Calm -- 30.48 in1032.2 mb - 0.00 in0.0 mm 0.00 in0.0 mm
12:50 PM 55.1°F12.8°C 33.6°F0.9°C 44% Calm Calm -- 30.48 in1032.2 mb - 0.00 in0.0 mm 0.00 in0.0 mm
01:00 PM 54.0°F12.2°C 33.1°F0.6°C 45% Calm Calm -- 30.48 in1032.2 mb - 0.00 in0.0 mm 0.00 in0.0 mm
01:10 PM 51.8°F11.0°C 31.1°F-0.5°C 45% Calm Calm -- 30.48 in1032.2 mb - 0.00 in0.0 mm 0.00 in0.0 mm
01:20 PM 51.8°F11.0°C 31.7°F-0.2°C 46% Calm Calm -- 30.50 in1032.8 mb - 0.00 in0.0 mm 0.00 in0.0 mm
01:30 PM 50.0°F10.0°C 29.5°F-1.4°C 45% Calm Calm -- 30.50 in1032.8 mb - 0.00 in0.0 mm 0.00 in0.0 mm
01:40 PM 50.2°F10.1°C 29.6°F-1.3°C 45% Calm Calm -- 30.50 in1032.8 mb - 0.00 in0.0 mm 0.00 in0.0 mm
01:50 PM 50.3°F10.2°C 29.2°F-1.6°C 44% Calm Calm -- 30.53 in1033.9 mb - 0.00 in0.0 mm 0.00 in0.0 mm
02:00 PM 50.1°F10.1°C 29.6°F-1.3°C 45% Calm Calm -- 30.53 in1033.9 mb - 0.00 in0.0 mm 0.00 in0.0 mm
02:10 PM 49.1°F9.5°C 28.1°F-2.2°C 44% Calm Calm -- 30.56 in1034.9 mb - 0.00 in0.0 mm 0.00 in0.0 mm
02:20 PM 47.9°F8.8°C 27.6°F-2.4°C 45% Calm Calm -- 30.56 in1034.9 mb - 0.00 in0.0 mm 0.00 in0.0 mm
02:30 PM 47.6°F8.7°C 27.3°F-2.6°C 45% Calm Calm -- 30.56 in1034.9 mb - 0.00 in0.0 mm 0.00 in0.0 mm
02:40 PM 47.7°F8.7°C 27.3°F-2.6°C 45% Calm Calm -- 30.59 in1035.9 mb - 0.00 in0.0 mm 0.00 in0.0 mm
02:50 PM 47.2°F8.4°C 26.9°F-2.8°C 45% Calm Calm -- 30.59 in1035.9 mb - 0.00 in0.0 mm 0.00 in0.0 mm
03:00 PM 46.1°F7.8°C 25.9°F-3.4°C 45% Calm Calm -- 30.59 in1035.9 mb - 0.00 in0.0 mm 0.00 in0.0 mm
03:10 PM 45.4°F7.4°C 25.3°F-3.7°C 45% Calm Calm -- 30.62 in1036.9 mb - 0.00 in0.0 mm 0.00 in0.0 mm
03:20 PM 44.4°F6.9°C 24.9°F-3.9°C 46% Calm Calm -- 30.62 in1036.9 mb - 0.00 in0.0 mm 0.00 in0.0 mm
03:30 PM 43.7°F6.5°C 24.2°F-4.3°C 46% Calm Calm -- 30.62 in1036.9 mb - 0.00 in0.0 mm 0.00 in0.0 mm
03:40 PM 43.2°F6.2°C 23.8°F-4.6°C 46% Calm Calm -- 30.65 in1037.9 mb - 0.00 in0.0 mm 0.00 in0.0 mm
03:50 PM 42.8°F6.0°C 23.9°F-4.5°C 47% Calm Calm -- 30.65 in1037.9 mb - 0.00 in0.0 mm 0.00 in0.0 mm
04:00 PM 42.4°F5.8°C 23.6°F-4.7°C 47% Calm Calm -- 30.65 in1037.9 mb - 0.00 in0.0 mm 0.00 in0.0 mm
04:10 PM 41.9°F5.5°C 23.6°F-4.7°C 48% Calm Calm -- 30.68 in1038.9 mb - 0.00 in0.0 mm 0.00 in0.0 mm
04:20 PM 41.5°F5.3°C 23.3°F-4.8°C 48% Calm Calm -- 30.68 in1038.9 mb - 0.00 in0.0 mm 0.00 in0.0 mm
04:30 PM 41.1°F5.1°C 23.4°F-4.8°C 49% Calm Calm -- 30.68 in1038.9 mb - 0.00 in0.0 mm 0.00 in0.0 mm
04:40 PM 40.5°F4.7°C 22.8°F-5.1°C 49% Calm Calm -- 30.71 in1040.0 mb - 0.00 in0.0 mm 0.00 in0.0 mm
04:50 PM 40.2°F4.6°C 22.5°F-5.3°C 49% Calm Calm -- 30.71 in1040.0 mb - 0.00 in0.0 mm 0.00 in0.0 mm
05:00 PM 39.7°F4.3°C 22.1°F-5.5°C 49% Calm Calm -- 30.71 in1040.0 mb - 0.00 in0.0 mm 0.00 in0.0 mm
05:10 PM 39.4°F4.1°C 22.3°F-5.4°C 50% Calm Calm -- 30.71 in1040.0 mb - 0.00 in0.0 mm 0.00 in0.0 mm
05:20 PM 39.0°F3.9°C 21.9°F-5.6°C 50% Calm Calm -- 30.74 in1041.0 mb - 0.00 in0.0 mm 0.00 in0.0 mm
05:30 PM 38.7°F3.7°C 22.1°F-5.5°C 51% Calm Calm -- 30.74 in1041.0 mb - 0.00 in0.0 mm 0.00 in0.0 mm
05:40 PM 38.3°F3.5°C 21.7°F-5.7°C 51% Calm Calm -- 30.74 in1041.0 mb - 0.00 in0.0 mm 0.00 in0.0 mm
05:50 PM 38.1°F3.4°C 22.0°F-5.6°C 52% Calm Calm -- 30.74 in1041.0 mb - 0.00 in0.0 mm 0.00 in0.0 mm
06:00 PM 37.9°F3.3°C 21.9°F-5.6°C 52% Calm Calm -- 30.74 in1041.0 mb - 0.00 in0.0 mm 0.00 in0.0 mm
06:10 PM 37.9°F3.3°C 21.8°F-5.7°C 52% Calm Calm -- 30.74 in1041.0 mb - 0.00 in0.0 mm 0.00 in0.0 mm
06:20 PM 37.6°F3.1°C 22.0°F-5.6°C 53% Calm Calm -- 30.77 in1042.0 mb - 0.00 in0.0 mm 0.00 in0.0 mm
06:30 PM 37.4°F3.0°C 21.8°F-5.7°C 53% Calm Calm -- 30.77 in1042.0 mb - 0.00 in0.0 mm 0.00 in0.0 mm
06:40 PM 37.2°F2.9°C 21.6°F-5.8°C 53% Calm Calm -- 30.77 in1042.0 mb - 0.00 in0.0 mm 0.00 in0.0 mm
06:50 PM 37.0°F2.8°C 21.5°F-5.8°C 53% Calm Calm -- 30.77 in1042.0 mb - 0.00 in0.0 mm 0.00 in0.0 mm
07:00 PM 37.0°F2.8°C 21.9°F-5.6°C 54% Calm Calm -- 30.77 in1042.0 mb - 0.00 in0.0 mm 0.00 in0.0 mm
07:10 PM 36.5°F2.5°C 21.4°F-5.9°C 54% Calm Calm -- 30.80 in1043.0 mb - 0.00 in0.0 mm 0.00 in0.0 mm
07:20 PM 36.3°F2.4°C 21.7°F-5.7°C 55% Calm Calm -- 30.80 in1043.0 mb - 0.00 in0.0 mm 0.00 in0.0 mm
07:30 PM 36.1°F2.3°C 21.5°F-5.8°C 55% Calm Calm -- 30.80 in1043.0 mb - 0.00 in0.0 mm 0.00 in0.0 mm
07:40 PM 36.0°F2.2°C 21.3°F-5.9°C 55% Calm Calm -- 30.80 in1043.0 mb - 0.00 in0.0 mm 0.00 in0.0 mm
07:50 PM 35.8°F2.1°C 21.6°F-5.8°C 56% Calm Calm -- 30.83 in1044.0 mb - 0.00 in0.0 mm 0.00 in0.0 mm
08:10 PM 35.6°F2.0°C 21.4°F-5.9°C 56% Calm Calm -- 30.83 in1044.0 mb - 0.00 in0.0 mm 0.00 in0.0 mm
08:20 PM 35.3°F1.8°C 21.2°F-6.0°C 56% Calm Calm -- 30.83 in1044.0 mb - 0.00 in0.0 mm 0.00 in0.0 mm
08:30 PM 35.2°F1.8°C 21.1°F-6.1°C 56% Calm Calm -- 30.83 in1044.0 mb - 0.00 in0.0 mm 0.00 in0.0 mm
08:40 PM 34.9°F1.6°C 20.8°F-6.2°C 56% Calm Calm -- 30.86 in1045.0 mb - 0.00 in0.0 mm 0.00 in0.0 mm
08:50 PM 34.7°F1.5°C 20.6°F-6.3°C 56% Calm Calm -- 30.83 in1044.0 mb - 0.00 in0.0 mm 0.00 in0.0 mm
09:00 PM 34.7°F1.5°C 20.2°F-6.6°C 55% Calm Calm -- 30.83 in1044.0 mb - 0.00 in0.0 mm 0.00 in0.0 mm
09:10 PM 34.3°F1.3°C 19.4°F-7.0°C 54% Calm Calm -- 30.83 in1044.0 mb - 0.00 in0.0 mm 0.00 in0.0 mm
09:20 PM 34.5°F1.4°C 18.7°F-7.4°C 52% Calm Calm -- 30.86 in1045.0 mb - 0.00 in0.0 mm 0.00 in0.0 mm
09:30 PM 34.3°F1.3°C 18.1°F-7.7°C 51% Calm Calm -- 30.86 in1045.0 mb - 0.00 in0.0 mm 0.00 in0.0 mm
09:40 PM 34.2°F1.2°C 17.9°F-7.8°C 51% Calm Calm -- 30.86 in1045.0 mb - 0.00 in0.0 mm 0.00 in0.0 mm
09:50 PM 33.8°F1.0°C 17.6°F-8.0°C 51% Calm Calm -- 30.86 in1045.0 mb - 0.00 in0.0 mm 0.00 in0.0 mm
10:00 PM 33.7°F0.9°C 17.5°F-8.1°C 51% Calm Calm -- 30.86 in1045.0 mb - 0.00 in0.0 mm 0.00 in0.0 mm
10:10 PM 33.4°F0.8°C 17.2°F-8.2°C 51% Calm Calm -- 30.86 in1045.0 mb - 0.00 in0.0 mm 0.00 in0.0 mm
10:20 PM 33.0°F0.6°C 16.8°F-8.4°C 51% Calm Calm -- 30.86 in1045.0 mb - 0.00 in0.0 mm 0.00 in0.0 mm
10:30 PM 32.5°F0.3°C 16.9°F-8.4°C 52% Calm Calm -- 30.86 in1045.0 mb - 0.00 in0.0 mm 0.00 in0.0 mm
10:40 PM 32.2°F0.1°C 17.0°F-8.3°C 53% Calm Calm -- 30.86 in1045.0 mb - 0.00 in0.0 mm 0.00 in0.0 mm
10:50 PM 31.6°F-0.2°C 16.4°F-8.7°C 53% Calm Calm -- 30.86 in1045.0 mb - 0.00 in0.0 mm 0.00 in0.0 mm
11:00 PM 31.5°F-0.3°C 16.3°F-8.7°C 53% Calm Calm -- 30.86 in1045.0 mb - 0.00 in0.0 mm 0.00 in0.0 mm
11:10 PM 31.5°F-0.3°C 15.8°F-9.0°C 52% Calm Calm -- 30.89 in1046.1 mb - 0.00 in0.0 mm 0.00 in0.0 mm
11:20 PM 31.5°F-0.3°C 15.8°F-9.0°C 52% Calm Calm -- 30.89 in1046.1 mb - 0.00 in0.0 mm 0.00 in0.0 mm
11:30 PM 31.1°F-0.5°C 15.5°F-9.2°C 52% Calm Calm -- 30.89 in1046.1 mb - 0.00 in0.0 mm 0.00 in0.0 mm
11:40 PM 30.7°F-0.7°C 15.1°F-9.4°C 52% Calm Calm -- 30.89 in1046.1 mb - 0.00 in0.0 mm 0.00 in0.0 mm
11:50 PM 30.4°F-0.9°C 15.3°F-9.3°C 53% Calm Calm -- 30.89 in1046.1 mb - 0.00 in0.0 mm 0.00 in0.0 mm